Pagina principale
METAR-TAF:

METAR-TAF

Aeroporti :

McKinley Park, Alaska, Stati Uniti

latitudine: 63-44N, longitudine: 148-55W, altezza: 524 m

Osservazione

Il bollettino è stato emesso 48 minuti fa, alle 13:56 UTC
Vento 4 kt da sud
Temperature 6°C
Umidità 65%
Pressione 1008 hPa
Visibilità: 16.1 km
Nubi sparse ad un'altezza di 3900 ft
Cielo coperto ad un'altezza di 4900 ft

METAR: PAIN 221356Z AUTO 18004KT 10SM SCT039 OVC049 06/00 A2977 RMK AO2 SLP096 T00610000

Ora: 06:44 (14:44 UTC)


TAF: mancante

Osservazioni e previsioni meteorologiche di più di 4000 aeroporti (messaggi METAR e TAF).

Le stazioni disponibili sono rappresentate dai dischi gialli e rossi sulla carta.

Puntare il mouse per vedere il nome della stazione.

Clicca sopra per visualizzare le osservazioni e previsioni meteorologiche.

Per cambiare la mappa : fare clic sui pulsanti verdi con una croce nera per ingrandire, il pulsante verde con un trattino per diminuire, o sulla freccia verde per le mappe adiacenti.


METAR-TAF: